Time;durP1;ratioP1;P1;durP2;ratioP2;P2;SDS_P1;SDS_P2;PMS_P1;PMS_P2;Temp;Humidity;BMP_temperature;BMP_pressure;BME280_temperature;BME280_humidity;BME280_pressure;Samples;Min_cycle;Max_cycle;Signal;HPM_P1;HPM_P2
2024/02/08 00:01:31;;;;;;;;;2.33;2.00;;;;;0.18;97.90;99149.89;112401;241;160356;-53
2024/02/08 00:04:05;;;;;;;;;6.33;4.00;;;;;0.11;97.89;99152.50;112491;244;40178;-50
2024/02/08 00:06:40;;;;;;;;;2.00;2.00;;;;;0.07;97.89;99157.68;112363;241;160413;-50
2024/02/08 00:09:18;;;;;;;;;4.25;3.00;;;;;0.02;97.82;99155.61;112498;244;39724;-53
2024/02/08 00:11:59;;;;;;;;;3.00;3.00;;;;;-0.02;97.73;99158.63;112333;241;160291;-53
2024/02/08 00:14:41;;;;;;;;;5.00;3.00;;;;;-0.05;97.76;99160.19;112528;244;41081;-54
2024/02/08 00:17:27;;;;;;;;;5.75;3.00;;;;;-0.07;97.86;99162.23;112449;244;39570;-53
2024/02/08 00:20:07;;;;;;;;;3.25;2.50;;;;;0.03;97.97;99167.80;112481;244;40992;-55
2024/02/08 00:22:46;;;;;;;;;4.00;3.00;;;;;0.13;98.25;99170.55;112479;244;39606;-55
2024/02/08 00:25:24;;;;;;;;;7.00;5.00;;;;;0.25;98.36;99169.18;112377;243;160407;-54
2024/02/08 00:28:11;;;;;;;;;4.00;3.00;;;;;0.34;98.42;99176.77;112492;244;39797;-52
2024/02/08 00:30:54;;;;;;;;;4.00;3.00;;;;;0.34;98.55;99177.69;112371;241;160534;-51
2024/02/08 00:33:38;;;;;;;;;5.00;3.00;;;;;0.35;98.54;99183.73;112518;244;39786;-54
2024/02/08 00:36:21;;;;;;;;;3.00;3.00;;;;;0.34;98.59;99179.08;112295;241;160558;-55
2024/02/08 00:38:57;;;;;;;;;4.00;3.00;;;;;0.34;98.65;99180.99;112470;245;39850;-52
2024/02/08 00:41:34;;;;;;;;;2.00;2.00;;;;;0.28;98.60;99177.13;112354;241;161857;-51
2024/02/08 00:44:17;;;;;;;;;3.00;3.00;;;;;0.29;98.59;99185.77;112554;244;40602;-55
2024/02/08 00:47:00;;;;;;;;;2.75;2.50;;;;;0.36;98.58;99193.00;112436;244;41313;-55
2024/02/08 00:49:35;;;;;;;;;3.00;3.00;;;;;0.39;98.65;99188.77;112353;242;160563;-54
2024/02/08 00:52:12;;;;;;;;;4.00;2.00;;;;;0.41;98.66;99189.68;112459;245;41153;-55
2024/02/08 00:54:51;;;;;;;;;3.00;2.00;;;;;0.45;98.65;99191.94;112415;241;160478;-53
2024/02/08 00:57:29;;;;;;;;;3.00;2.00;;;;;0.48;98.75;99193.23;112475;244;40035;-54
2024/02/08 01:00:06;;;;;;;;;3.75;3.00;;;;;0.51;98.98;99197.97;112377;241;160845;-51
2024/02/08 01:02:40;;;;;;;;;4.25;4.00;;;;;0.61;99.04;99203.08;112521;245;40136;-51
2024/02/08 01:05:22;;;;;;;;;2.00;1.00;;;;;0.65;98.91;99202.98;112553;245;40669;-55
2024/02/08 01:08:00;;;;;;;;;6.00;4.50;;;;;0.69;98.89;99203.99;112487;245;39717;-55
2024/02/08 01:10:47;;;;;;;;;2.00;2.00;;;;;0.70;98.86;99206.96;112458;245;40957;-55
2024/02/08 01:13:31;;;;;;;;;3.00;3.00;;;;;0.69;98.74;99213.19;112315;242;161127;-53
2024/02/08 01:16:11;;;;;;;;;2.00;1.33;;;;;0.66;98.72;99214.05;112456;245;40069;-53
2024/02/08 01:18:49;;;;;;;;;1.75;1.25;;;;;0.61;98.49;99215.43;112351;242;159619;-51
2024/02/08 01:21:30;;;;;;;;;4.50;3.00;;;;;0.50;98.34;99219.88;112427;245;40098;-51
2024/02/08 01:24:09;;;;;;;;;2.00;2.00;;;;;0.36;98.26;99219.95;112342;241;160705;-54
2024/02/08 01:26:56;;;;;;;;;3.00;2.00;;;;;0.32;98.28;99229.41;112505;244;41932;-54
2024/02/08 01:29:34;;;;;;;;;5.00;4.00;;;;;0.26;98.16;99228.58;112315;242;160570;-53
2024/02/08 01:32:15;;;;;;;;;3.00;2.00;;;;;0.24;98.12;99226.97;112439;244;39954;-54
2024/02/08 01:34:52;;;;;;;;;4.00;4.00;;;;;0.17;98.03;99226.05;112507;245;40133;-51
2024/02/08 01:37:29;;;;;;;;;4.00;3.00;;;;;0.15;98.03;99228.77;112456;241;160472;-51
2024/02/08 01:40:16;;;;;;;;;2.00;2.00;;;;;0.13;98.09;99225.66;112462;244;39327;-55
2024/02/08 01:43:01;;;;;;;;;4.00;3.00;;;;;0.08;97.90;99222.96;112294;242;160197;-55
2024/02/08 01:45:45;;;;;;;;;3.75;3.00;;;;;0.03;97.80;99221.85;112442;245;40249;-55
2024/02/08 01:48:21;;;;;;;;;3.75;2.75;;;;;-0.08;97.80;99228.75;112387;241;160073;-51
2024/02/08 01:51:04;;;;;;;;;4.00;3.00;;;;;-0.11;97.74;99226.09;112547;244;39860;-50
2024/02/08 01:53:44;;;;;;;;;5.75;4.00;;;;;-0.17;97.69;99222.81;112365;242;162255;-54
2024/02/08 01:56:29;;;;;;;;;7.00;4.00;;;;;-0.26;97.48;99223.78;112427;244;39531;-54
2024/02/08 01:59:05;;;;;;;;;2.75;2.00;;;;;-0.36;97.54;99221.11;112423;245;39293;-53
2024/02/08 02:01:50;;;;;;;;;2.00;2.00;;;;;-0.35;97.60;99224.58;112282;243;160782;-53
2024/02/08 02:04:30;;;;;;;;;3.00;3.00;;;;;-0.40;97.58;99224.70;112327;245;42804;-54
2024/02/08 02:07:07;;;;;;;;;7.50;4.00;;;;;-0.46;97.50;99224.09;112412;241;160589;-54
2024/02/08 02:09:44;;;;;;;;;5.00;3.50;;;;;-0.50;97.70;99221.81;112489;244;39865;-50
2024/02/08 02:12:25;;;;;;;;;3.00;3.00;;;;;-0.54;97.73;99221.08;112362;241;160386;-50
2024/02/08 02:15:04;;;;;;;;;4.00;3.00;;;;;-0.55;97.73;99221.56;112481;244;40005;-50
2024/02/08 02:17:44;;;;;;;;;4.00;4.00;;;;;-0.59;97.78;99223.20;112313;241;160709;-50
2024/02/08 02:20:24;;;;;;;;;3.00;2.25;;;;;-0.65;97.63;99224.41;112536;244;39429;-53
2024/02/08 02:23:04;;;;;;;;;4.67;3.33;;;;;-0.66;97.80;99222.20;112484;244;39772;-53
2024/02/08 02:25:44;;;;;;;;;7.00;3.00;;;;;-0.65;97.60;99225.13;112386;241;160566;-55
2024/02/08 02:28:21;;;;;;;;;4.25;3.50;;;;;-0.69;97.67;99225.59;112506;244;38953;-54
2024/02/08 02:30:57;;;;;;;;;5.00;3.00;;;;;-0.71;97.58;99226.80;112628;241;160843;-54
2024/02/08 02:33:35;;;;;;;;;6.00;4.75;;;;;-0.70;97.61;99227.98;112719;243;39872;-51
2024/02/08 02:36:12;;;;;;;;;4.50;4.00;;;;;-0.68;97.70;99225.51;112600;241;161842;-51
2024/02/08 02:38:53;;;;;;;;;3.00;3.00;;;;;-0.65;97.62;99233.08;112448;243;39484;-51
2024/02/08 02:41:40;;;;;;;;;2.00;2.00;;;;;-0.67;97.61;99234.77;112414;240;160598;-51
2024/02/08 02:44:24;;;;;;;;;5.00;4.00;;;;;-0.70;97.60;99233.98;112855;243;40372;-51
2024/02/08 02:47:08;;;;;;;;;4.00;3.33;;;;;-0.73;97.54;99240.25;112514;243;39965;-53
2024/02/08 02:49:55;;;;;;;;;4.00;4.00;;;;;-0.73;97.51;99245.04;112674;243;160211;-52
2024/02/08 02:52:36;;;;;;;;;2.00;2.00;;;;;-0.75;97.50;99248.23;112501;243;40342;-53
2024/02/08 02:55:23;;;;;;;;;3.00;3.00;;;;;-0.75;97.50;99252.30;112623;240;160841;-55
2024/02/08 02:58:00;;;;;;;;;4.00;2.00;;;;;-0.78;97.41;99251.52;112465;243;40421;-54
2024/02/08 03:00:39;;;;;;;;;3.00;2.00;;;;;-0.80;97.40;99249.92;112545;240;160343;-55
2024/02/08 03:03:20;;;;;;;;;3.00;2.00;;;;;-0.76;97.61;99249.88;112649;243;39598;-53
2024/02/08 03:06:01;;;;;;;;;4.00;3.00;;;;;-0.73;97.64;99254.09;112450;241;160301;-53
2024/02/08 03:08:43;;;;;;;;;3.00;2.00;;;;;-0.78;97.61;99260.55;112725;243;39416;-55
2024/02/08 03:11:24;;;;;;;;;4.00;3.00;;;;;-0.81;97.50;99264.52;112552;243;39860;-55
2024/02/08 03:13:59;;;;;;;;;3.00;3.00;;;;;-0.81;97.66;99267.00;112491;243;39899;-53
2024/02/08 03:16:36;;;;;;;;;4.00;2.33;;;;;-0.85;97.56;99260.66;112519;243;40068;-53
2024/02/08 03:19:20;;;;;;;;;4.00;3.00;;;;;-0.91;97.59;99263.39;112749;241;160683;-52
2024/02/08 03:21:57;;;;;;;;;5.00;4.25;;;;;-0.96;97.59;99267.89;112528;243;40720;-52
2024/02/08 03:24:35;;;;;;;;;1.00;1.00;;;;;-0.93;97.68;99269.74;112588;241;161079;-55
2024/02/08 03:27:13;;;;;;;;;4.00;3.00;;;;;-0.91;97.78;99268.13;112663;243;39857;-55
2024/02/08 03:29:53;;;;;;;;;4.00;3.00;;;;;-0.85;97.82;99275.02;112424;241;160721;-54
2024/02/08 03:32:36;;;;;;;;;2.00;2.00;;;;;-0.82;97.71;99276.44;112720;243;40038;-54
2024/02/08 03:35:12;;;;;;;;;2.25;2.00;;;;;-0.79;97.74;99277.81;112518;243;39461;-55
2024/02/08 03:37:50;;;;;;;;;1.00;1.00;;;;;-0.77;97.64;99280.09;112823;241;159822;-55
2024/02/08 03:40:29;;;;;;;;;2.00;2.00;;;;;-0.79;97.58;99279.23;112490;243;39413;-55
2024/02/08 03:43:05;;;;;;;;;3.00;2.00;;;;;-0.84;97.54;99276.35;112789;241;160124;-52
2024/02/08 03:45:43;;;;;;;;;1.00;1.00;;;;;-0.88;97.44;99280.20;112523;243;39220;-51
2024/02/08 03:48:22;;;;;;;;;2.00;2.00;;;;;-0.95;97.46;99284.06;112669;241;160684;-51
2024/02/08 03:51:00;;;;;;;;;2.25;2.00;;;;;-1.01;97.34;99288.53;112395;243;42603;-55
2024/02/08 03:53:43;;;;;;;;;2.33;1.00;;;;;-0.99;97.40;99290.33;112382;241;160611;-51
2024/02/08 03:56:36;;;;;;;;;3.00;2.00;;;;;-1.04;97.44;99288.34;112530;244;39078;-52
2024/02/08 03:59:26;;;;;;;;;2.00;2.00;;;;;-1.09;97.46;99292.84;112575;244;39876;-53
2024/02/08 04:02:09;;;;;;;;;2.00;2.00;;;;;-1.09;97.49;99295.71;112399;245;41532;-53
2024/02/08 04:04:59;;;;;;;;;5.00;2.50;;;;;-1.13;97.56;99299.05;112516;245;39635;-55
2024/02/08 04:07:56;;;;;;;;;2.00;1.25;;;;;-1.12;97.49;99299.64;112339;241;160736;-55
2024/02/08 04:53:53;;;;;;;;;2.00;2.00;;;;;-1.25;97.38;99323.85;112424;241;160799;-51
2024/02/08 04:56:42;;;;;;;;;4.00;4.00;;;;;-1.30;97.35;99322.85;112964;243;40896;-51
2024/02/08 04:59:25;;;;;;;;;3.00;2.25;;;;;-1.32;97.32;99323.80;112477;243;39129;-51
2024/02/08 05:02:06;;;;;;;;;4.75;4.00;;;;;-1.33;97.28;99327.23;112489;244;39175;-51
2024/02/08 05:04:48;;;;;;;;;4.00;3.00;;;;;-1.33;97.20;99328.31;112531;244;39655;-51
2024/02/08 05:07:28;;;;;;;;;3.00;2.00;;;;;-1.39;97.20;99324.92;112336;242;162127;-51
2024/02/08 05:10:05;;;;;;;;;6.00;4.00;;;;;-1.46;97.30;99326.70;112527;244;41233;-54
2024/02/08 05:12:47;;;;;;;;;4.00;3.00;;;;;-1.52;97.39;99329.72;112362;241;160847;-54
2024/02/08 05:15:33;;;;;;;;;5.00;4.00;;;;;-1.52;97.39;99333.54;112507;245;39503;-54
2024/02/08 05:18:11;;;;;;;;;5.50;3.75;;;;;-1.58;97.39;99331.16;112372;241;161001;-52
2024/02/08 05:20:54;;;;;;;;;5.00;4.00;;;;;-1.59;97.33;99330.71;112497;244;40555;-51
2024/02/08 05:23:38;;;;;;;;;6.00;4.75;;;;;-1.61;97.42;99322.20;112528;244;39685;-51
2024/02/08 05:26:19;;;;;;;;;3.00;2.50;;;;;-1.58;97.30;99325.51;112441;244;39803;-50
2024/02/08 05:29:00;;;;;;;;;8.75;5.00;;;;;-1.59;97.34;99327.73;112487;244;39457;-54
2024/02/08 05:31:39;;;;;;;;;5.33;4.00;;;;;-1.62;97.39;99335.55;112300;241;160223;-55
2024/02/08 05:34:25;;;;;;;;;5.25;4.50;;;;;-1.59;97.37;99335.83;112493;245;40781;-53
2024/02/08 05:37:04;;;;;;;;;4.00;3.00;;;;;-1.56;97.49;99334.15;112335;241;159887;-53
2024/02/08 05:39:48;;;;;;;;;9.00;6.25;;;;;-1.57;97.49;99336.12;112485;244;40769;-51
2024/02/08 05:42:29;;;;;;;;;4.00;3.33;;;;;-1.59;97.41;99333.90;112323;241;161085;-51
2024/02/08 05:45:18;;;;;;;;;8.00;4.00;;;;;-1.63;97.36;99329.85;112430;245;39525;-51
2024/02/08 05:48:00;;;;;;;;;5.00;4.00;;;;;-1.66;97.43;99334.31;112360;241;160769;-50
2024/02/08 05:50:37;;;;;;;;;5.50;4.00;;;;;-1.68;97.52;99334.39;112543;244;39934;-53
2024/02/08 05:53:15;;;;;;;;;8.75;5.00;;;;;-1.70;97.62;99335.23;112515;244;41430;-53
2024/02/08 05:55:59;;;;;;;;;8.00;5.00;;;;;-1.69;97.58;99334.11;112326;241;160811;-53
2024/02/08 05:58:38;;;;;;;;;7.00;5.00;;;;;-1.66;97.64;99339.30;112518;245;39145;-52
2024/02/08 06:01:23;;;;;;;;;8.67;5.67;;;;;-1.61;97.65;99343.77;112397;241;160700;-51
2024/02/08 06:04:09;;;;;;;;;7.25;4.00;;;;;-1.62;97.69;99343.38;112501;244;39215;-53
2024/02/08 06:06:58;;;;;;;;;3.33;3.00;;;;;-1.61;97.72;99352.09;112329;241;160600;-53
2024/02/08 06:09:47;;;;;;;;;5.33;4.00;;;;;-1.58;97.71;99352.85;112486;245;39751;-51
2024/02/08 06:12:28;;;;;;;;;7.00;6.00;;;;;-1.54;97.68;99354.71;112328;241;160665;-50
2024/02/08 06:15:21;;;;;;;;;5.50;4.00;;;;;-1.49;97.84;99359.09;112518;244;40187;-51
2024/02/08 06:18:03;;;;;;;;;6.33;4.00;;;;;-1.41;97.89;99367.69;112301;241;161283;-51
2024/02/08 06:20:59;;;;;;;;;6.50;4.75;;;;;-1.35;97.90;99366.39;112401;245;42318;-53
2024/02/08 06:23:50;;;;;;;;;6.00;4.00;;;;;-1.28;97.96;99364.03;112428;245;40774;-54
2024/02/08 06:26:31;;;;;;;;;6.00;5.00;;;;;-1.26;97.88;99364.37;112459;243;39639;-55
2024/02/08 06:29:18;;;;;;;;;7.00;5.00;;;;;-1.27;97.96;99366.72;112559;243;39798;-54
2024/02/08 06:32:02;;;;;;;;;4.00;4.00;;;;;-1.27;97.95;99377.31;112314;242;161251;-55
2024/02/08 06:34:47;;;;;;;;;5.00;4.25;;;;;-1.22;98.05;99377.42;112516;245;42519;-51
2024/02/08 06:37:30;;;;;;;;;7.00;5.00;;;;;-1.21;98.02;99382.30;112297;242;160087;-51
2024/02/08 06:40:14;;;;;;;;;3.50;3.00;;;;;-1.22;97.96;99383.23;112518;244;40468;-53
2024/02/08 06:46:09;;;;;;;;;4.00;3.00;;;;;-1.15;98.16;99383.84;112484;245;39590;-54
2024/02/08 07:38:07;;;;;;;;;5.50;4.50;;;;;-0.23;97.94;99385.05;112351;244;161091;-50
2024/02/08 07:40:51;;;;;;;;;10.50;7.00;;;;;-0.16;97.92;99392.17;112425;245;39629;-51
2024/02/08 07:43:34;;;;;;;;;9.00;7.75;;;;;-0.14;98.06;99398.38;112371;241;160513;-50
2024/02/08 07:46:17;;;;;;;;;9.67;6.00;;;;;-0.10;98.23;99400.64;112444;244;39896;-50
2024/02/08 07:49:04;;;;;;;;;8.75;6.00;;;;;-0.02;98.23;99407.96;112375;241;162186;-51
2024/02/08 07:51:50;;;;;;;;;12.00;8.25;;;;;0.08;98.13;99409.33;112419;244;39195;-51
2024/02/08 07:54:30;;;;;;;;;8.50;7.00;;;;;0.15;98.00;99400.67;112365;241;160444;-55
2024/02/08 07:57:11;;;;;;;;;10.25;8.00;;;;;0.21;98.18;99399.17;112438;244;39743;-55
2024/02/08 07:59:48;;;;;;;;;12.00;7.33;;;;;0.26;98.06;99404.57;112322;241;160226;-54
2024/02/08 08:02:29;;;;;;;;;12.00;8.00;;;;;0.35;97.91;99411.82;112442;244;39472;-56
2024/02/08 08:05:14;;;;;;;;;9.50;7.00;;;;;0.37;97.79;99415.99;112482;244;39459;-54
2024/02/08 08:08:02;;;;;;;;;10.00;8.00;;;;;0.35;97.95;99419.75;113030;241;159775;-54
2024/02/08 08:10:41;;;;;;;;;7.00;6.00;;;;;0.35;98.01;99416.17;112585;243;39315;-56
2024/02/08 08:13:50;;;;;;;;;9.75;7.00;;;;;0.40;97.79;99413.80;112960;241;160544;-52
2024/02/08 08:19:13;;;;;;;;;11.00;8.00;;;;;0.50;97.60;99407.27;112932;243;160866;-52
2024/02/08 08:22:03;;;;;;;;;8.00;7.00;;;;;0.51;97.95;99412.70;112607;243;41179;-52
2024/02/08 08:25:00;;;;;;;;;12.25;9.50;;;;;0.60;98.09;99407.88;112686;241;160588;-55
2024/02/08 08:27:52;;;;;;;;;9.50;5.50;;;;;0.69;98.01;99399.83;112684;243;41040;-55
2024/02/08 08:30:41;;;;;;;;;8.00;6.00;;;;;0.74;97.97;99391.08;112589;241;161036;-50
2024/02/08 08:33:58;;;;;;;;;7.00;6.00;;;;;0.90;97.70;99389.47;112896;243;39386;-52
2024/02/08 08:36:29;;;;;;;;;10.00;6.00;;;;;0.99;97.68;99399.09;112419;244;159318;-52
2024/02/08 08:41:57;;;;;;;;;7.00;6.00;;;;;1.10;97.22;99408.94;112332;241;160041;-55
2024/02/08 08:44:48;;;;;;;;;6.00;5.00;;;;;1.01;97.27;99402.92;113185;243;39297;-55
2024/02/08 08:47:27;;;;;;;;;9.00;7.00;;;;;1.02;97.12;99403.91;112465;243;40794;-55
2024/02/08 08:50:17;;;;;;;;;12.00;9.00;;;;;1.03;96.82;99397.77;113164;241;160583;-54
2024/02/08 08:52:57;;;;;;;;;8.33;7.33;;;;;1.01;96.78;99403.61;112458;243;40054;-54
2024/02/08 08:55:43;;;;;;;;;11.00;8.00;;;;;1.00;96.76;99406.43;112955;241;160631;-54
2024/02/08 08:58:27;;;;;;;;;9.00;7.00;;;;;1.04;96.94;99407.06;112554;243;39889;-51
2024/02/08 09:01:15;;;;;;;;;8.00;6.00;;;;;1.14;97.00;99408.44;112735;241;160566;-51
2024/02/08 09:04:09;;;;;;;;;9.00;6.67;;;;;1.25;96.95;99410.95;112670;243;40389;-54
2024/02/08 09:06:51;;;;;;;;;9.00;7.00;;;;;1.35;96.70;99410.24;112689;241;160070;-54
2024/02/08 09:09:54;;;;;;;;;9.00;7.25;;;;;1.47;96.42;99411.02;112850;243;40088;-55
2024/02/08 09:12:39;;;;;;;;;10.00;7.00;;;;;1.42;96.36;99412.20;112595;241;160838;-55
2024/02/08 09:15:26;;;;;;;;;7.00;6.00;;;;;1.40;96.82;99409.17;113025;243;41895;-51
2024/02/08 09:18:10;;;;;;;;;9.00;6.25;;;;;1.51;96.63;99404.91;112413;241;160202;-53
2024/02/08 09:20:47;;;;;;;;;8.75;7.00;;;;;1.60;96.17;99401.64;113228;243;40024;-54
2024/02/08 09:23:29;;;;;;;;;12.00;9.00;;;;;1.65;96.11;99401.77;112501;243;39444;-54
2024/02/08 09:26:11;;;;;;;;;7.33;6.00;;;;;1.72;96.23;99402.27;113035;241;160595;-54
2024/02/08 09:28:50;;;;;;;;;7.75;6.50;;;;;1.92;95.96;99407.41;112527;243;41244;-50
2024/02/08 09:31:38;;;;;;;;;9.25;7.00;;;;;1.95;96.04;99400.73;112968;241;160430;-50
2024/02/08 09:34:17;;;;;;;;;10.00;8.00;;;;;2.08;95.35;99401.63;112562;243;40424;-52
2024/02/08 09:36:57;;;;;;;;;10.00;7.00;;;;;2.05;95.23;99403.70;112711;241;160055;-51
2024/02/08 09:39:53;;;;;;;;;8.00;6.25;;;;;2.01;95.26;99393.07;112777;243;39511;-54
2024/02/08 09:42:29;;;;;;;;;8.00;7.00;;;;;2.07;95.07;99398.48;112624;241;159870;-55
2024/02/08 09:45:24;;;;;;;;;9.00;6.50;;;;;2.08;94.54;99395.52;113024;243;39714;-50
2024/02/08 09:48:06;;;;;;;;;13.00;9.00;;;;;2.12;94.15;99399.75;112497;241;159944;-52
2024/02/08 09:50:50;;;;;;;;;7.75;6.00;;;;;2.11;93.79;99393.65;112970;243;40714;-51
2024/02/08 09:53:34;;;;;;;;;8.00;7.00;;;;;2.13;94.32;99393.26;112580;243;39425;-56
2024/02/08 09:56:25;;;;;;;;;8.00;7.00;;;;;2.15;94.09;99397.13;112858;241;160952;-51
2024/02/08 09:59:07;;;;;;;;;10.50;8.00;;;;;2.17;93.95;99400.16;112521;243;39481;-55
2024/02/08 10:01:49;;;;;;;;;10.25;7.00;;;;;2.19;93.85;99399.17;112940;241;160890;-55
2024/02/08 10:04:30;;;;;;;;;8.00;7.00;;;;;2.21;94.10;99404.31;112474;243;39937;-54
2024/02/08 10:07:16;;;;;;;;;10.25;7.25;;;;;2.29;93.93;99399.02;112684;241;160513;-54
2024/02/08 10:09:59;;;;;;;;;9.00;8.00;;;;;2.39;93.35;99397.78;112576;243;40080;-55
2024/02/08 10:12:53;;;;;;;;;10.25;8.00;;;;;2.38;93.49;99390.11;112473;241;159983;-55
2024/02/08 10:15:44;;;;;;;;;10.00;8.00;;;;;2.37;93.59;99386.41;112686;243;39743;-54
2024/02/08 10:18:33;;;;;;;;;11.25;8.00;;;;;2.25;93.52;99385.05;112464;241;160605;-53
2024/02/08 10:21:17;;;;;;;;;7.00;6.00;;;;;2.24;93.17;99375.22;112746;243;40085;-53
2024/02/08 10:24:11;;;;;;;;;5.25;4.00;;;;;2.21;93.20;99374.86;112378;241;160349;-50
2024/02/08 10:26:54;;;;;;;;;6.00;4.00;;;;;2.24;92.57;99376.11;112890;243;39138;-49
2024/02/08 10:29:32;;;;;;;;;8.25;6.00;;;;;2.13;92.69;99384.56;112593;243;40240;-54
2024/02/08 10:32:13;;;;;;;;;9.00;6.25;;;;;2.14;92.62;99378.54;112923;241;159570;-53
2024/02/08 10:35:13;;;;;;;;;5.00;4.00;;;;;2.12;92.56;99375.30;112516;243;41232;-53
2024/02/08 10:38:07;;;;;;;;;8.00;5.00;;;;;2.07;92.28;99377.91;112766;241;161977;-53
2024/02/08 10:40:55;;;;;;;;;7.00;6.00;;;;;2.09;92.26;99368.80;112519;243;39600;-54
2024/02/08 10:43:37;;;;;;;;;7.50;6.25;;;;;2.10;92.46;99367.17;112707;241;160594;-54
2024/02/08 10:46:19;;;;;;;;;7.00;5.25;;;;;2.14;92.62;99367.61;112533;243;40975;-55
2024/02/08 10:48:59;;;;;;;;;9.00;7.00;;;;;2.20;92.28;99368.20;112568;241;159721;-50
2024/02/08 10:51:43;;;;;;;;;6.00;5.00;;;;;2.19;92.28;99358.52;112711;243;39160;-50
2024/02/08 10:54:23;;;;;;;;;7.00;4.67;;;;;2.25;92.46;99352.77;112510;240;160005;-51
2024/02/08 10:57:08;;;;;;;;;7.25;5.00;;;;;2.28;92.02;99349.21;112826;243;40199;-50
2024/02/08 10:59:52;;;;;;;;;7.00;5.50;;;;;2.19;91.58;99344.36;112517;243;39590;-51
2024/02/08 11:02:48;;;;;;;;;10.75;5.00;;;;;2.17;91.49;99338.89;112365;244;39119;-51
2024/02/08 11:05:47;;;;;;;;;7.00;6.00;;;;;2.13;91.76;99345.34;112428;244;40406;-55
2024/02/08 11:08:34;;;;;;;;;8.00;5.00;;;;;2.16;91.95;99335.62;112439;245;39650;-54
2024/02/08 11:11:20;;;;;;;;;7.00;5.00;;;;;2.20;92.03;99324.89;112506;245;41169;-54
2024/02/08 11:13:59;;;;;;;;;8.25;6.00;;;;;2.22;92.09;99334.91;112357;242;160469;-51
2024/02/08 11:16:44;;;;;;;;;8.75;7.00;;;;;2.21;92.05;99336.44;112511;245;40428;-51
2024/02/08 11:19:23;;;;;;;;;5.00;4.00;;;;;2.28;92.12;99332.33;112459;241;160232;-51
2024/02/08 11:21:57;;;;;;;;;7.75;5.00;;;;;2.38;91.76;99327.50;112486;244;40697;-51
2024/02/08 11:24:38;;;;;;;;;5.50;4.75;;;;;2.44;91.38;99326.04;112403;241;159893;-52
2024/02/08 11:27:27;;;;;;;;;9.33;5.67;;;;;2.43;91.33;99327.03;112573;244;39019;-52
2024/02/08 11:30:10;;;;;;;;;9.00;7.00;;;;;2.45;91.20;99322.16;112298;244;160295;-51
2024/02/08 11:33:03;;;;;;;;;6.33;6.00;;;;;2.45;91.27;99323.05;112536;244;41145;-50
2024/02/08 11:35:54;;;;;;;;;7.00;5.00;;;;;2.44;91.09;99317.98;112426;244;39293;-55
2024/02/08 11:38:34;;;;;;;;;9.00;6.00;;;;;2.48;90.87;99325.75;112470;244;39627;-51
2024/02/08 11:41:18;;;;;;;;;7.00;5.75;;;;;2.51;90.59;99324.88;112474;244;39421;-51
2024/02/08 11:44:05;;;;;;;;;8.25;7.00;;;;;2.57;90.72;99326.89;112406;241;159725;-55
2024/02/08 11:46:45;;;;;;;;;12.00;8.00;;;;;2.60;90.27;99319.26;112474;244;39529;-55
2024/02/08 11:49:31;;;;;;;;;5.75;5.00;;;;;2.64;90.31;99318.67;112390;242;160710;-53
2024/02/08 11:52:10;;;;;;;;;7.00;5.00;;;;;2.65;90.25;99313.03;112447;245;40269;-54
2024/02/08 11:55:08;;;;;;;;;9.25;7.25;;;;;2.71;89.90;99317.70;112333;241;160387;-54
2024/02/08 11:57:54;;;;;;;;;7.00;6.00;;;;;2.66;89.35;99316.90;112462;244;41221;-52
2024/02/08 12:00:30;;;;;;;;;9.50;6.50;;;;;2.61;89.45;99316.83;112364;242;161328;-52
2024/02/08 12:03:07;;;;;;;;;10.33;8.00;;;;;2.69;89.22;99309.08;112493;245;42446;-53
2024/02/08 12:05:57;;;;;;;;;9.00;7.00;;;;;2.70;89.14;99295.07;112482;245;39234;-54
2024/02/08 12:08:37;;;;;;;;;8.00;7.00;;;;;2.63;89.11;99287.38;112495;245;39251;-54
2024/02/08 12:11:22;;;;;;;;;6.00;5.00;;;;;2.60;89.21;99289.06;112004;245;646957;-54
2024/02/08 12:14:06;;;;;;;;;7.00;5.75;;;;;2.57;89.18;99290.23;112377;242;160018;-51
2024/02/08 12:16:57;;;;;;;;;9.00;7.00;;;;;2.63;88.79;99287.14;112479;245;40456;-50
2024/02/08 12:19:37;;;;;;;;;5.25;4.00;;;;;2.56;88.81;99280.77;112327;245;160713;-51
2024/02/08 12:22:21;;;;;;;;;7.00;6.00;;;;;2.59;88.53;99279.58;112406;245;40167;-51
2024/02/08 12:25:07;;;;;;;;;6.00;4.00;;;;;2.59;88.23;99281.73;112323;243;159865;-51
2024/02/08 12:27:58;;;;;;;;;5.00;4.00;;;;;2.57;87.71;99286.54;112465;244;39662;-51
2024/02/08 12:30:39;;;;;;;;;5.00;4.00;;;;;2.57;87.31;99287.44;112299;241;160131;-50
2024/02/08 12:33:26;;;;;;;;;5.00;4.00;;;;;2.53;87.19;99282.04;112468;244;40347;-52
2024/02/08 12:36:04;;;;;;;;;5.00;4.00;;;;;2.50;87.51;99286.84;112476;244;40673;-52
2024/02/08 12:38:42;;;;;;;;;5.75;4.00;;;;;2.56;87.46;99282.97;112492;244;41035;-53
2024/02/08 12:41:17;;;;;;;;;3.00;2.50;;;;;2.52;87.34;99280.36;112480;244;40201;-54
2024/02/08 12:43:54;;;;;;;;;4.00;3.00;;;;;2.49;87.28;99272.17;112356;241;159982;-55
2024/02/08 12:46:32;;;;;;;;;6.00;4.00;;;;;2.42;86.91;99272.57;112504;245;40160;-54
2024/02/08 12:49:11;;;;;;;;;4.50;3.00;;;;;2.38;86.45;99265.63;112374;241;160297;-53
2024/02/08 12:51:49;;;;;;;;;5.00;4.00;;;;;2.38;86.21;99262.27;112502;244;39087;-54
2024/02/08 12:54:35;;;;;;;;;4.00;3.75;;;;;2.35;86.41;99261.73;112339;241;160288;-50
2024/02/08 12:57:18;;;;;;;;;5.00;4.00;;;;;2.35;86.66;99257.10;112436;245;40226;-50
2024/02/08 13:00:07;;;;;;;;;5.00;3.33;;;;;2.29;86.47;99256.36;112518;245;40600;-61
2024/02/08 13:02:45;;;;;;;;;8.25;6.25;;;;;2.23;86.35;99255.30;112465;243;39166;-51
2024/02/08 13:05:29;;;;;;;;;7.00;5.00;;;;;2.25;86.43;99254.19;112571;243;39875;-54
2024/02/08 13:08:07;;;;;;;;;5.00;4.00;;;;;2.23;86.31;99252.59;112347;242;159619;-52
2024/02/08 13:10:54;;;;;;;;;2.75;2.00;;;;;2.19;86.33;99244.99;112436;245;41147;-51
2024/02/08 13:13:36;;;;;;;;;9.00;6.00;;;;;2.16;85.98;99243.92;112304;242;159875;-55
2024/02/08 13:16:12;;;;;;;;;4.25;4.00;;;;;2.13;86.23;99245.71;112405;245;40121;-55
2024/02/08 13:18:59;;;;;;;;;3.25;3.00;;;;;2.06;86.36;99242.00;112595;241;159859;-55
2024/02/08 13:21:39;;;;;;;;;5.00;4.00;;;;;2.01;86.22;99239.36;112851;243;40673;-59
2024/02/08 13:24:35;;;;;;;;;3.00;2.75;;;;;1.94;86.51;99236.92;112412;241;159946;-54
2024/02/08 13:27:10;;;;;;;;;7.50;5.00;;;;;1.86;86.56;99234.00;113076;243;39835;-54
2024/02/08 13:29:51;;;;;;;;;4.00;3.00;;;;;1.86;86.68;99231.44;112522;243;39594;-52
2024/02/08 13:32:30;;;;;;;;;9.25;7.00;;;;;1.86;86.55;99230.02;113126;241;161594;-52
2024/02/08 13:35:09;;;;;;;;;5.00;4.00;;;;;1.90;86.63;99231.75;112509;243;40994;-55
2024/02/08 13:37:50;;;;;;;;;7.00;4.75;;;;;1.95;86.67;99232.36;112844;241;160494;-55
2024/02/08 13:40:27;;;;;;;;;4.67;4.00;;;;;1.94;86.63;99225.91;112562;243;39851;-54
2024/02/08 13:43:05;;;;;;;;;5.00;4.00;;;;;1.96;86.43;99226.80;112615;241;160041;-54
2024/02/08 13:45:46;;;;;;;;;4.75;4.00;;;;;2.03;86.12;99229.15;112720;243;38961;-55
2024/02/08 13:48:28;;;;;;;;;4.00;3.00;;;;;2.07;86.41;99229.66;112445;243;159997;-52
2024/02/08 13:51:08;;;;;;;;;7.00;5.00;;;;;2.11;86.35;99226.16;112993;243;40919;-52
2024/02/08 13:53:51;;;;;;;;;4.00;4.00;;;;;2.11;86.11;99224.00;112494;243;39739;-52
2024/02/08 13:56:42;;;;;;;;;7.00;5.00;;;;;2.07;86.16;99223.27;112882;240;159538;-52
2024/02/08 13:59:18;;;;;;;;;7.00;5.00;;;;;2.08;86.51;99228.30;112441;243;39641;-51
2024/02/08 14:02:01;;;;;;;;;6.00;5.00;;;;;2.10;86.30;99225.10;112813;241;159846;-51
2024/02/08 14:04:38;;;;;;;;;4.50;3.75;;;;;2.08;85.88;99227.40;112496;243;40975;-51
2024/02/08 14:07:20;;;;;;;;;6.00;4.00;;;;;2.00;86.23;99225.95;112695;241;159897;-50
2024/02/08 14:09:59;;;;;;;;;5.00;4.00;;;;;1.94;86.17;99223.58;112630;243;39566;-51
2024/02/08 14:12:45;;;;;;;;;6.00;5.00;;;;;1.85;86.10;99220.71;112455;241;160458;-51
2024/02/08 14:15:23;;;;;;;;;4.00;3.00;;;;;1.80;85.60;99217.85;112496;243;41094;-51
2024/02/08 14:18:22;;;;;;;;;4.00;4.00;;;;;1.74;85.75;99219.63;112477;243;41023;-50
2024/02/08 14:21:01;;;;;;;;;3.00;2.00;;;;;1.62;85.69;99217.06;112453;243;40213;-51
2024/02/08 14:23:40;;;;;;;;;6.50;4.00;;;;;1.55;85.88;99221.06;112470;243;39877;-51
2024/02/08 14:29:16;;;;;;;;;4.00;3.00;;;;;1.47;86.22;99220.50;112448;243;39903;-52
2024/02/08 14:31:54;;;;;;;;;5.00;4.00;;;;;1.42;86.22;99219.59;112733;241;160581;-52